sensor_id;sensor_type;location;lat;lon;timestamp;pressure;altitude;pressure_sealevel;temperature;humidity
49104;BME280;34915;52.926;11.116;2022-10-16T00:01:13;100964.06;;;15.78;100.00
49104;BME280;34915;52.926;11.116;2022-10-16T00:03:43;100951.00;;;15.76;100.00
49104;BME280;34915;52.926;11.116;2022-10-16T00:06:12;100974.06;;;15.77;100.00
49104;BME280;34915;52.926;11.116;2022-10-16T00:08:39;100965.09;;;15.77;100.00
49104;BME280;34915;52.926;11.116;2022-10-16T00:13:37;100988.31;;;15.57;100.00
49104;BME280;34915;52.926;11.116;2022-10-16T00:16:04;100988.59;;;15.54;100.00
49104;BME280;34915;52.926;11.116;2022-10-16T00:18:33;100973.91;;;15.39;100.00
49104;BME280;34915;52.926;11.116;2022-10-16T00:21:14;100999.44;;;15.32;100.00
49104;BME280;34915;52.926;11.116;2022-10-16T00:23:40;101000.22;;;15.23;100.00
49104;BME280;34915;52.926;11.116;2022-10-16T00:26:09;101003.63;;;15.25;100.00
49104;BME280;34915;52.926;11.116;2022-10-16T00:28:36;100997.34;;;15.15;100.00
49104;BME280;34915;52.926;11.116;2022-10-16T00:31:04;100992.19;;;15.03;100.00
49104;BME280;34915;52.926;11.116;2022-10-16T00:33:30;101001.38;;;14.89;100.00
49104;BME280;34915;52.926;11.116;2022-10-16T00:35:58;100996.25;;;14.77;100.00
49104;BME280;34915;52.926;11.116;2022-10-16T00:38:24;100999.28;;;14.73;100.00
49104;BME280;34915;52.926;11.116;2022-10-16T00:40:50;100991.34;;;14.62;100.00
49104;BME280;34915;52.926;11.116;2022-10-16T00:46:05;100996.00;;;14.49;100.00
49104;BME280;34915;52.926;11.116;2022-10-16T00:48:33;100992.34;;;14.50;100.00
49104;BME280;34915;52.926;11.116;2022-10-16T00:50:59;100986.66;;;14.43;100.00
49104;BME280;34915;52.926;11.116;2022-10-16T00:53:25;100994.28;;;14.48;100.00
49104;BME280;34915;52.926;11.116;2022-10-16T00:55:51;100998.72;;;14.38;100.00
49104;BME280;34915;52.926;11.116;2022-10-16T00:58:17;100988.78;;;14.29;100.00
49104;BME280;34915;52.926;11.116;2022-10-16T01:00:43;101001.13;;;14.30;100.00
49104;BME280;34915;52.926;11.116;2022-10-16T01:03:32;101003.59;;;14.22;100.00
49104;BME280;34915;52.926;11.116;2022-10-16T01:06:21;101004.34;;;14.13;100.00
49104;BME280;34915;52.926;11.116;2022-10-16T01:09:11;101005.69;;;14.08;100.00
49104;BME280;34915;52.926;11.116;2022-10-16T01:12:01;101008.69;;;14.03;100.00
49104;BME280;34915;52.926;11.116;2022-10-16T01:14:47;101017.19;;;13.97;100.00
49104;BME280;34915;52.926;11.116;2022-10-16T01:20:29;101010.88;;;13.87;100.00
49104;BME280;34915;52.926;11.116;2022-10-16T01:25:39;101030.75;;;13.73;100.00
49104;BME280;34915;52.926;11.116;2022-10-16T01:28:11;101012.09;;;13.62;100.00
49104;BME280;34915;52.926;11.116;2022-10-16T01:30:40;101038.00;;;13.71;100.00
49104;BME280;34915;52.926;11.116;2022-10-16T01:33:20;101022.50;;;13.65;100.00
49104;BME280;34915;52.926;11.116;2022-10-16T01:35:53;101033.16;;;13.65;100.00
49104;BME280;34915;52.926;11.116;2022-10-16T01:40:58;101025.66;;;13.48;100.00
49104;BME280;34915;52.926;11.116;2022-10-16T01:43:43;101018.63;;;13.36;100.00
49104;BME280;34915;52.926;11.116;2022-10-16T01:46:17;101021.28;;;13.36;100.00
49104;BME280;34915;52.926;11.116;2022-10-16T01:48:44;101028.53;;;13.34;100.00
49104;BME280;34915;52.926;11.116;2022-10-16T01:51:12;101026.59;;;13.36;100.00
49104;BME280;34915;52.926;11.116;2022-10-16T01:53:41;101026.59;;;13.36;100.00
49104;BME280;34915;52.926;11.116;2022-10-16T01:56:13;101016.44;;;13.30;100.00
49104;BME280;34915;52.926;11.116;2022-10-16T01:58:54;101025.16;;;13.32;100.00
49104;BME280;34915;52.926;11.116;2022-10-16T02:01:23;101019.84;;;13.32;100.00
49104;BME280;34915;52.926;11.116;2022-10-16T02:03:53;101023.47;;;13.31;100.00
49104;BME280;34915;52.926;11.116;2022-10-16T02:06:20;101029.63;;;13.31;100.00
49104;BME280;34915;52.926;11.116;2022-10-16T02:08:46;101023.47;;;13.31;100.00
49104;BME280;34915;52.926;11.116;2022-10-16T02:11:12;101030.72;;;13.29;100.00
49104;BME280;34915;52.926;11.116;2022-10-16T02:13:45;101023.69;;;13.28;100.00
49104;BME280;34915;52.926;11.116;2022-10-16T02:16:12;101043.28;;;13.27;100.00
49104;BME280;34915;52.926;11.116;2022-10-16T02:18:43;101032.88;;;13.24;100.00
49104;BME280;34915;52.926;11.116;2022-10-16T02:21:26;101019.94;;;13.20;100.00
49104;BME280;34915;52.926;11.116;2022-10-16T02:26:45;101025.59;;;13.04;100.00
49104;BME280;34915;52.926;11.116;2022-10-16T02:29:17;101035.94;;;12.96;100.00
49104;BME280;34915;52.926;11.116;2022-10-16T02:31:48;101034.59;;;12.91;100.00
49104;BME280;34915;52.926;11.116;2022-10-16T02:34:16;101027.41;;;12.80;100.00
49104;BME280;34915;52.926;11.116;2022-10-16T02:36:44;101036.56;;;12.77;100.00
49104;BME280;34915;52.926;11.116;2022-10-16T02:39:14;101042.88;;;12.76;100.00
49104;BME280;34915;52.926;11.116;2022-10-16T02:41:40;101040.19;;;12.76;100.00
49104;BME280;34915;52.926;11.116;2022-10-16T02:44:06;101044.16;;;12.70;100.00
49104;BME280;34915;52.926;11.116;2022-10-16T02:46:34;101045.13;;;12.69;100.00
49104;BME280;34915;52.926;11.116;2022-10-16T02:49:00;101044.72;;;12.63;100.00
49104;BME280;34915;52.926;11.116;2022-10-16T02:51:25;101047.63;;;12.60;100.00
49104;BME280;34915;52.926;11.116;2022-10-16T02:53:51;101059.19;;;12.59;100.00
49104;BME280;34915;52.926;11.116;2022-10-16T02:56:16;101055.41;;;12.50;100.00
49104;BME280;34915;52.926;11.116;2022-10-16T02:58:42;101061.81;;;12.48;100.00
49104;BME280;34915;52.926;11.116;2022-10-16T03:01:08;101060.56;;;12.41;100.00
49104;BME280;34915;52.926;11.116;2022-10-16T03:03:36;101071.19;;;12.41;100.00
49104;BME280;34915;52.926;11.116;2022-10-16T03:06:02;101076.44;;;12.30;100.00
49104;BME280;34915;52.926;11.116;2022-10-16T03:08:28;101086.78;;;12.22;100.00
49104;BME280;34915;52.926;11.116;2022-10-16T03:10:54;101090.16;;;12.24;100.00
49104;BME280;34915;52.926;11.116;2022-10-16T03:13:20;101081.69;;;12.19;100.00
49104;BME280;34915;52.926;11.116;2022-10-16T03:15:46;101076.38;;;12.19;100.00
49104;BME280;34915;52.926;11.116;2022-10-16T03:18:12;101075.31;;;12.09;100.00
49104;BME280;34915;52.926;11.116;2022-10-16T03:20:38;101075.31;;;12.09;100.00
49104;BME280;34915;52.926;11.116;2022-10-16T03:23:06;101074.81;;;12.04;100.00
49104;BME280;34915;52.926;11.116;2022-10-16T03:25:36;101073.22;;;12.02;100.00
49104;BME280;34915;52.926;11.116;2022-10-16T03:28:02;101080.13;;;12.04;100.00
49104;BME280;34915;52.926;11.116;2022-10-16T03:30:28;101084.91;;;11.99;100.00
49104;BME280;34915;52.926;11.116;2022-10-16T03:32:57;101091.81;;;11.89;100.00
49104;BME280;34915;52.926;11.116;2022-10-16T03:35:25;101091.53;;;11.81;100.00
49104;BME280;34915;52.926;11.116;2022-10-16T03:37:50;101095.13;;;11.80;100.00
49104;BME280;34915;52.926;11.116;2022-10-16T03:40:16;101095.03;;;11.70;100.00
49104;BME280;34915;52.926;11.116;2022-10-16T03:42:43;101096.41;;;11.63;100.00
49104;BME280;34915;52.926;11.116;2022-10-16T03:45:11;101089.19;;;11.65;100.00
49104;BME280;34915;52.926;11.116;2022-10-16T03:47:40;101092.59;;;11.67;100.00
49104;BME280;34915;52.926;11.116;2022-10-16T03:50:06;101090.69;;;11.69;100.00
49104;BME280;34915;52.926;11.116;2022-10-16T03:52:32;101083.66;;;11.68;100.00
49104;BME280;34915;52.926;11.116;2022-10-16T03:55:01;101088.78;;;11.71;100.00
49104;BME280;34915;52.926;11.116;2022-10-16T03:57:26;101102.56;;;11.76;100.00
49104;BME280;34915;52.926;11.116;2022-10-16T03:59:52;101090.03;;;11.78;100.00
49104;BME280;34915;52.926;11.116;2022-10-16T04:02:17;101089.81;;;11.80;100.00
49104;BME280;34915;52.926;11.116;2022-10-16T04:04:43;101081.19;;;11.89;100.00
49104;BME280;34915;52.926;11.116;2022-10-16T04:07:09;101087.03;;;11.94;100.00
49104;BME280;34915;52.926;11.116;2022-10-16T04:09:37;101087.66;;;12.10;100.00
49104;BME280;34915;52.926;11.116;2022-10-16T04:12:03;101087.22;;;12.04;100.00
49104;BME280;34915;52.926;11.116;2022-10-16T04:14:28;101089.03;;;12.03;100.00
49104;BME280;34915;52.926;11.116;2022-10-16T04:16:57;101089.78;;;12.05;100.00
49104;BME280;34915;52.926;11.116;2022-10-16T04:19:22;101089.56;;;12.08;100.00
49104;BME280;34915;52.926;11.116;2022-10-16T04:21:48;101089.34;;;12.11;100.00
49104;BME280;34915;52.926;11.116;2022-10-16T04:24:13;101096.34;;;12.12;100.00
49104;BME280;34915;52.926;11.116;2022-10-16T04:26:39;101103.38;;;12.13;100.00
49104;BME280;34915;52.926;11.116;2022-10-16T04:29:05;101103.16;;;12.16;100.00
49104;BME280;34915;52.926;11.116;2022-10-16T04:31:31;101098.06;;;12.13;100.00
49104;BME280;34915;52.926;11.116;2022-10-16T04:33:59;101099.53;;;12.17;100.00
49104;BME280;34915;52.926;11.116;2022-10-16T04:36:25;101100.09;;;12.33;100.00
49104;BME280;34915;52.926;11.116;2022-10-16T04:38:51;101106.19;;;12.35;100.00
49104;BME280;34915;52.926;11.116;2022-10-16T04:41:17;101103.53;;;12.35;100.00
49104;BME280;34915;52.926;11.116;2022-10-16T04:43:42;101095.03;;;12.30;100.00
49104;BME280;34915;52.926;11.116;2022-10-16T04:46:08;101103.00;;;12.30;100.00
49104;BME280;34915;52.926;11.116;2022-10-16T04:48:35;101106.41;;;12.32;100.00
49104;BME280;34915;52.926;11.116;2022-10-16T04:51:01;101102.03;;;12.31;100.00
49104;BME280;34915;52.926;11.116;2022-10-16T04:53:30;101113.63;;;12.30;100.00
49104;BME280;34915;52.926;11.116;2022-10-16T04:55:58;101126.06;;;12.29;100.00
49104;BME280;34915;52.926;11.116;2022-10-16T04:58:24;101117.75;;;12.34;100.00
49104;BME280;34915;52.926;11.116;2022-10-16T05:00:53;101113.13;;;12.25;100.00
49104;BME280;34915;52.926;11.116;2022-10-16T05:03:21;101109.28;;;12.29;100.00
49104;BME280;34915;52.926;11.116;2022-10-16T05:05:47;101103.97;;;12.29;100.00
49104;BME280;34915;52.926;11.116;2022-10-16T05:08:14;101111.94;;;12.29;100.00
49104;BME280;34915;52.926;11.116;2022-10-16T05:10:43;101121.81;;;12.27;100.00
49104;BME280;34915;52.926;11.116;2022-10-16T05:13:12;101118.19;;;12.28;100.00
49104;BME280;34915;52.926;11.116;2022-10-16T05:15:38;101128.81;;;12.28;100.00
49104;BME280;34915;52.926;11.116;2022-10-16T05:18:04;101124.56;;;12.26;100.00
49104;BME280;34915;52.926;11.116;2022-10-16T05:20:29;101129.66;;;12.28;100.00
49104;BME280;34915;52.926;11.116;2022-10-16T05:22:55;101121.81;;;12.27;100.00
49104;BME280;34915;52.926;11.116;2022-10-16T05:25:20;101121.81;;;12.27;100.00
49104;BME280;34915;52.926;11.116;2022-10-16T05:27:48;101117.03;;;12.32;100.00
49104;BME280;34915;52.926;11.116;2022-10-16T05:30:14;101113.63;;;12.30;100.00
49104;BME280;34915;52.926;11.116;2022-10-16T05:32:41;101119.03;;;12.28;100.00
49104;BME280;34915;52.926;11.116;2022-10-16T05:35:07;101125.22;;;12.29;100.00
49104;BME280;34915;52.926;11.116;2022-10-16T05:37:33;101125.66;;;12.23;100.00
49104;BME280;34915;52.926;11.116;2022-10-16T05:39:58;101139.69;;;12.25;100.00
49104;BME280;34915;52.926;11.116;2022-10-16T05:42:24;101141.06;;;12.18;100.00
49104;BME280;34915;52.926;11.116;2022-10-16T05:44:49;101149.25;;;12.15;100.00
49104;BME280;34915;52.926;11.116;2022-10-16T05:47:15;101167.31;;;12.10;100.00
49104;BME280;34915;52.926;11.116;2022-10-16T05:49:40;101153.28;;;12.08;100.00
49104;BME280;34915;52.926;11.116;2022-10-16T05:52:06;101157.97;;;12.17;100.00
49104;BME280;34915;52.926;11.116;2022-10-16T05:54:32;101163.50;;;12.14;100.00
49104;BME280;34915;52.926;11.116;2022-10-16T05:56:57;101161.81;;;12.13;100.00
49104;BME280;34915;52.926;11.116;2022-10-16T05:59:26;101160.09;;;12.12;100.00
49104;BME280;34915;52.926;11.116;2022-10-16T06:01:51;101165.41;;;12.12;100.00
49104;BME280;34915;52.926;11.116;2022-10-16T06:04:18;101154.78;;;12.12;100.00
49104;BME280;34915;52.926;11.116;2022-10-16T06:06:47;101173.91;;;12.17;100.00
49104;BME280;34915;52.926;11.116;2022-10-16T06:09:15;101181.78;;;12.19;100.00
49104;BME280;34915;52.926;11.116;2022-10-16T06:11:41;101177.72;;;12.13;100.00
49104;BME280;34915;52.926;11.116;2022-10-16T06:14:10;101182.63;;;12.19;100.00
49104;BME280;34915;52.926;11.116;2022-10-16T06:16:39;101190.56;;;12.19;100.00
49104;BME280;34915;52.926;11.116;2022-10-16T06:19:04;101191.31;;;12.21;100.00
49104;BME280;34915;52.926;11.116;2022-10-16T06:21:35;101193.75;;;12.24;100.00
49104;BME280;34915;52.926;11.116;2022-10-16T06:24:01;101185.34;;;12.30;100.00
49104;BME280;34915;52.926;11.116;2022-10-16T06:26:28;101192.81;;;12.37;100.00
49104;BME280;34915;52.926;11.116;2022-10-16T06:28:59;101190.97;;;12.38;100.00
49104;BME280;34915;52.926;11.116;2022-10-16T06:31:28;101173.88;;;12.42;100.00
49104;BME280;34915;52.926;11.116;2022-10-16T06:33:57;101183.31;;;12.46;100.00
49104;BME280;34915;52.926;11.116;2022-10-16T06:36:26;101183.84;;;12.51;100.00
49104;BME280;34915;52.926;11.116;2022-10-16T06:38:52;101197.19;;;12.62;100.00
49104;BME280;34915;52.926;11.116;2022-10-16T06:41:20;101193.13;;;12.69;100.00
49104;BME280;34915;52.926;11.116;2022-10-16T06:43:47;101198.00;;;12.75;100.00
49104;BME280;34915;52.926;11.116;2022-10-16T06:46:15;101205.53;;;12.80;100.00
49104;BME280;34915;52.926;11.116;2022-10-16T06:48:44;101200.56;;;12.76;100.00
49104;BME280;34915;52.926;11.116;2022-10-16T06:51:18;101199.56;;;12.89;100.00
49104;BME280;34915;52.926;11.116;2022-10-16T06:53:48;101215.63;;;13.00;100.00
49104;BME280;34915;52.926;11.116;2022-10-16T06:58:42;101215.16;;;13.06;100.00
49104;BME280;34915;52.926;11.116;2022-10-16T07:01:09;101207.91;;;13.08;100.00
49104;BME280;34915;52.926;11.116;2022-10-16T07:03:40;101210.44;;;13.10;100.00
49104;BME280;34915;52.926;11.116;2022-10-16T07:06:12;101192.19;;;13.05;100.00
49104;BME280;34915;52.926;11.116;2022-10-16T07:08:43;101219.56;;;13.18;100.00
49104;BME280;34915;52.926;11.116;2022-10-16T07:11:15;101228.00;;;13.35;100.00
49104;BME280;34915;52.926;11.116;2022-10-16T07:13:43;101223.16;;;13.64;100.00
49104;BME280;34915;52.926;11.116;2022-10-16T07:16:14;101219.28;;;13.68;100.00
49104;BME280;34915;52.926;11.116;2022-10-16T07:18:44;101223.97;;;13.98;100.00
49104;BME280;34915;52.926;11.116;2022-10-16T07:21:16;101230.56;;;14.05;100.00
49104;BME280;34915;52.926;11.116;2022-10-16T07:23:43;101227.69;;;14.19;100.00
49104;BME280;34915;52.926;11.116;2022-10-16T07:26:09;101234.47;;;14.45;100.00
49104;BME280;34915;52.926;11.116;2022-10-16T07:28:38;101230.59;;;14.49;100.00
49104;BME280;34915;52.926;11.116;2022-10-16T07:31:09;101222.13;;;14.55;100.00
49104;BME280;34915;52.926;11.116;2022-10-16T07:33:36;101227.47;;;14.66;100.00
49104;BME280;34915;52.926;11.116;2022-10-16T07:36:02;101241.97;;;14.83;100.00
49104;BME280;34915;52.926;11.116;2022-10-16T07:38:28;101235.41;;;14.98;100.00
49104;BME280;34915;52.926;11.116;2022-10-16T07:40:57;101245.31;;;15.07;100.00
49104;BME280;34915;52.926;11.116;2022-10-16T07:43:25;101251.13;;;15.34;100.00
49104;BME280;34915;52.926;11.116;2022-10-16T07:45:51;101242.63;;;15.40;100.00
49104;BME280;34915;52.926;11.116;2022-10-16T07:48:17;101245.47;;;15.48;100.00
49104;BME280;34915;52.926;11.116;2022-10-16T07:50:44;101257.88;;;15.49;100.00
49104;BME280;34915;52.926;11.116;2022-10-16T07:53:10;101256.34;;;15.67;100.00
49104;BME280;34915;52.926;11.116;2022-10-16T07:55:37;101271.41;;;15.68;100.00
49104;BME280;34915;52.926;11.116;2022-10-16T07:58:08;101275.78;;;15.69;100.00
49104;BME280;34915;52.926;11.116;2022-10-16T08:00:36;101269.13;;;15.83;100.00
49104;BME280;34915;52.926;11.116;2022-10-16T08:03:05;101278.75;;;15.75;100.00
49104;BME280;34915;52.926;11.116;2022-10-16T08:05:34;101283.22;;;15.85;100.00
49104;BME280;34915;52.926;11.116;2022-10-16T08:08:02;101272.00;;;15.91;100.00
49104;BME280;34915;52.926;11.116;2022-10-16T08:10:29;101272.88;;;16.12;100.00
49104;BME280;34915;52.926;11.116;2022-10-16T08:12:54;101278.88;;;16.25;100.00
49104;BME280;34915;52.926;11.116;2022-10-16T08:15:20;101267.47;;;16.23;100.00
49104;BME280;34915;52.926;11.116;2022-10-16T08:17:59;101280.69;;;16.45;99.11
49104;BME280;34915;52.926;11.116;2022-10-16T08:20:30;101290.44;;;16.46;100.00
49104;BME280;34915;52.926;11.116;2022-10-16T08:22:56;101291.84;;;16.50;99.54
49104;BME280;34915;52.926;11.116;2022-10-16T08:25:25;101282.91;;;16.60;99.52
49104;BME280;34915;52.926;11.116;2022-10-16T08:27:51;101288.56;;;16.67;99.36
49104;BME280;34915;52.926;11.116;2022-10-16T08:30:22;101291.59;;;16.82;97.57
49104;BME280;34915;52.926;11.116;2022-10-16T08:32:48;101287.47;;;16.78;97.79
49104;BME280;34915;52.926;11.116;2022-10-16T08:35:17;101291.47;;;16.93;95.03
49104;BME280;34915;52.926;11.116;2022-10-16T08:37:42;101303.06;;;17.03;94.64
49104;BME280;34915;52.926;11.116;2022-10-16T08:40:23;101299.41;;;17.04;94.76
49104;BME280;34915;52.926;11.116;2022-10-16T08:48:45;101301.66;;;17.29;91.84
49104;BME280;34915;52.926;11.116;2022-10-16T08:51:20;101301.66;;;17.29;93.68
49104;BME280;34915;52.926;11.116;2022-10-16T08:56:30;101298.84;;;17.40;90.28
49104;BME280;34915;52.926;11.116;2022-10-16T08:58:59;101294.31;;;17.31;90.65
49104;BME280;34915;52.926;11.116;2022-10-16T09:01:36;101312.78;;;17.34;91.37
49104;BME280;34915;52.926;11.116;2022-10-16T09:06:58;101310.84;;;17.36;93.17
49104;BME280;34915;52.926;11.116;2022-10-16T09:17:41;101330.34;;;17.76;87.98
49104;BME280;34915;52.926;11.116;2022-10-16T09:25:44;101331.34;;;17.75;85.57
49104;BME280;34915;52.926;11.116;2022-10-16T09:28:11;101338.25;;;17.77;84.34
49104;BME280;34915;52.926;11.116;2022-10-16T09:30:42;101349.00;;;17.86;83.23
49104;BME280;34915;52.926;11.116;2022-10-16T09:33:12;101346.47;;;17.94;84.23
49104;BME280;34915;52.926;11.116;2022-10-16T09:35:46;101337.16;;;17.98;83.52
49104;BME280;34915;52.926;11.116;2022-10-16T09:40:53;101342.22;;;18.01;84.26
49104;BME280;34915;52.926;11.116;2022-10-16T09:43:20;101337.47;;;18.14;83.05
49104;BME280;34915;52.926;11.116;2022-10-16T09:45:56;101347.06;;;18.26;83.19
49104;BME280;34915;52.926;11.116;2022-10-16T09:51:13;101351.38;;;18.46;81.43
49104;BME280;34915;52.926;11.116;2022-10-16T09:53:46;101357.78;;;18.45;80.94
49104;BME280;34915;52.926;11.116;2022-10-16T09:56:21;101360.56;;;18.53;80.11
49104;BME280;34915;52.926;11.116;2022-10-16T09:58:52;101358.03;;;18.61;79.30
49104;BME280;34915;52.926;11.116;2022-10-16T10:01:20;101360.81;;;18.69;79.06
49104;BME280;34915;52.926;11.116;2022-10-16T10:03:46;101360.53;;;18.72;78.17
49104;BME280;34915;52.926;11.116;2022-10-16T10:06:23;101367.91;;;18.70;79.31
49104;BME280;34915;52.926;11.116;2022-10-16T10:11:56;101367.56;;;18.91;77.67
49104;BME280;34915;52.926;11.116;2022-10-16T10:25:38;101383.75;;;19.18;74.23
49104;BME280;34915;52.926;11.116;2022-10-16T10:28:09;101388.06;;;19.28;73.82
49104;BME280;34915;52.926;11.116;2022-10-16T10:33:42;101400.84;;;19.17;74.98
49104;BME280;34915;52.926;11.116;2022-10-16T10:36:38;101383.34;;;19.13;74.12
49104;BME280;34915;52.926;11.116;2022-10-16T10:39:26;101380.75;;;19.21;74.95
49104;BME280;34915;52.926;11.116;2022-10-16T10:42:33;101387.31;;;19.36;73.83
49104;BME280;34915;52.926;11.116;2022-10-16T10:53:06;101411.63;;;19.08;71.76
49104;BME280;34915;52.926;11.116;2022-10-16T10:55:39;101411.94;;;18.95;72.51
49104;BME280;34915;52.926;11.116;2022-10-16T11:01:04;101416.13;;;19.17;71.11
49104;BME280;34915;52.926;11.116;2022-10-16T11:06:28;101412.53;;;18.80;72.89
49104;BME280;34915;52.926;11.116;2022-10-16T11:17:10;101424.13;;;18.62;71.63
49104;BME280;34915;52.926;11.116;2022-10-16T11:22:40;101411.09;;;18.85;70.36
49104;BME280;34915;52.926;11.116;2022-10-16T11:25:32;101407.38;;;19.05;72.56
49104;BME280;34915;52.926;11.116;2022-10-16T11:28:06;101419.09;;;19.23;71.75
49104;BME280;34915;52.926;11.116;2022-10-16T11:30:55;101411.50;;;19.36;70.45
49104;BME280;34915;52.926;11.116;2022-10-16T11:33:49;101419.56;;;19.36;71.17
49104;BME280;34915;52.926;11.116;2022-10-16T11:36:53;101424.09;;;19.45;68.78
49104;BME280;34915;52.926;11.116;2022-10-16T11:39:31;101427.09;;;19.42;69.93
49104;BME280;34915;52.926;11.116;2022-10-16T11:45:45;101432.16;;;19.45;68.17
49104;BME280;34915;52.926;11.116;2022-10-16T11:52:55;101425.59;;;19.57;69.51
49104;BME280;34915;52.926;11.116;2022-10-16T11:55:29;101418.41;;;19.75;67.32
49104;BME280;34915;52.926;11.116;2022-10-16T11:58:02;101421.47;;;19.79;68.48
49104;BME280;34915;52.926;11.116;2022-10-16T12:01:18;101430.72;;;19.77;67.91
49104;BME280;34915;52.926;11.116;2022-10-16T12:03:38;101434.78;;;19.81;66.55
49104;BME280;34915;52.926;11.116;2022-10-16T12:08:53;101432.38;;;19.87;67.92
49104;BME280;34915;52.926;11.116;2022-10-16T12:17:04;101443.00;;;19.79;68.14
49104;BME280;34915;52.926;11.116;2022-10-16T12:19:57;101440.47;;;19.78;67.59
49104;BME280;34915;52.926;11.116;2022-10-16T12:22:28;101445.31;;;19.75;69.89
49104;BME280;34915;52.926;11.116;2022-10-16T12:24:58;101444.09;;;19.86;68.44
49104;BME280;34915;52.926;11.116;2022-10-16T12:27:28;101451.78;;;19.81;68.80
49104;BME280;34915;52.926;11.116;2022-10-16T12:29:57;101457.28;;;19.89;68.19
49104;BME280;34915;52.926;11.116;2022-10-16T12:32:37;101462.84;;;19.78;67.63
49104;BME280;34915;52.926;11.116;2022-10-16T12:35:26;101477.66;;;19.56;67.65
49104;BME280;34915;52.926;11.116;2022-10-16T12:37:53;101485.50;;;19.40;68.74
49104;BME280;34915;52.926;11.116;2022-10-16T12:40:32;101470.16;;;19.23;68.70
49104;BME280;34915;52.926;11.116;2022-10-16T12:48:40;101462.81;;;19.06;68.48
49104;BME280;34915;52.926;11.116;2022-10-16T12:54:19;101478.06;;;19.15;66.36
49104;BME280;34915;52.926;11.116;2022-10-16T13:19:35;101500.78;;;19.76;65.94
49104;BME280;34915;52.926;11.116;2022-10-16T13:22:34;101505.56;;;19.81;66.21
49104;BME280;34915;52.926;11.116;2022-10-16T13:28:11;101503.56;;;19.83;65.03
49104;BME280;34915;52.926;11.116;2022-10-16T13:30:43;101511.25;;;19.78;64.82
49104;BME280;34915;52.926;11.116;2022-10-16T13:33:24;101496.41;;;19.75;65.31
49104;BME280;34915;52.926;11.116;2022-10-16T13:35:58;101509.84;;;19.75;65.76
49104;BME280;34915;52.926;11.116;2022-10-16T13:38:29;101510.13;;;19.72;65.11
49104;BME280;34915;52.926;11.116;2022-10-16T13:41:14;101516.94;;;19.76;65.23
49104;BME280;34915;52.926;11.116;2022-10-16T13:43:49;101512.53;;;19.75;65.41
49104;BME280;34915;52.926;11.116;2022-10-16T13:46:21;101522.31;;;19.76;65.84
49104;BME280;34915;52.926;11.116;2022-10-16T13:49:13;101525.38;;;19.80;65.91
49104;BME280;34915;52.926;11.116;2022-10-16T13:51:39;101521.59;;;19.74;65.47
49104;BME280;34915;52.926;11.116;2022-10-16T13:54:09;101531.34;;;19.75;65.20
49104;BME280;34915;52.926;11.116;2022-10-16T13:56:39;101530.97;;;19.70;65.35
49104;BME280;34915;52.926;11.116;2022-10-16T13:59:36;101546.09;;;19.71;64.79
49104;BME280;34915;52.926;11.116;2022-10-16T14:02:29;101545.50;;;19.76;65.28
49104;BME280;34915;52.926;11.116;2022-10-16T14:04:57;101553.47;;;19.69;65.41
49104;BME280;34915;52.926;11.116;2022-10-16T14:07:29;101558.56;;;19.72;64.65
49104;BME280;34915;52.926;11.116;2022-10-16T14:10:05;101551.47;;;19.71;65.59
49104;BME280;34915;52.926;11.116;2022-10-16T14:12:32;101537.63;;;19.66;66.14
49104;BME280;34915;52.926;11.116;2022-10-16T14:15:01;101546.53;;;19.66;64.94
49104;BME280;34915;52.926;11.116;2022-10-16T14:17:34;101546.69;;;19.65;64.50
49104;BME280;34915;52.926;11.116;2022-10-16T14:20:05;101550.38;;;19.64;64.37
49104;BME280;34915;52.926;11.116;2022-10-16T14:22:41;101545.00;;;19.54;65.52
49104;BME280;34915;52.926;11.116;2022-10-16T14:27:45;101544.72;;;19.57;65.77
49104;BME280;34915;52.926;11.116;2022-10-16T14:33:02;101555.53;;;19.48;66.26
49104;BME280;34915;52.926;11.116;2022-10-16T14:35:39;101557.47;;;19.46;66.64
49104;BME280;34915;52.926;11.116;2022-10-16T14:38:06;101557.47;;;19.55;66.08
49104;BME280;34915;52.926;11.116;2022-10-16T14:40:47;101565.41;;;19.57;65.74
49104;BME280;34915;52.926;11.116;2022-10-16T14:45:58;101573.91;;;19.52;65.56
49104;BME280;34915;52.926;11.116;2022-10-16T14:48:27;101590.59;;;19.37;66.35
49104;BME280;34915;52.926;11.116;2022-10-16T14:50:55;101590.91;;;19.34;66.06
49104;BME280;34915;52.926;11.116;2022-10-16T14:53:21;101592.56;;;19.44;65.85
49104;BME280;34915;52.926;11.116;2022-10-16T14:55:47;101593.19;;;19.29;67.11
49104;BME280;34915;52.926;11.116;2022-10-16T14:58:23;101599.66;;;19.17;67.57
49104;BME280;34915;52.926;11.116;2022-10-16T15:00:55;101604.50;;;19.04;68.69
49104;BME280;34915;52.926;11.116;2022-10-16T15:03:24;101606.19;;;19.24;65.76
49104;BME280;34915;52.926;11.116;2022-10-16T15:05:53;101612.13;;;19.09;68.02
49104;BME280;34915;52.926;11.116;2022-10-16T15:08:21;101617.38;;;19.10;67.41
49104;BME280;34915;52.926;11.116;2022-10-16T15:10:47;101618.06;;;19.12;66.56
49104;BME280;34915;52.926;11.116;2022-10-16T15:13:13;101619.50;;;19.16;66.39
49104;BME280;34915;52.926;11.116;2022-10-16T15:15:46;101618.63;;;19.06;68.75
49104;BME280;34915;52.926;11.116;2022-10-16T15:18:15;101623.31;;;19.04;67.12
49104;BME280;34915;52.926;11.116;2022-10-16T15:20:49;101627.38;;;19.08;66.53